Fort William, United Kingdom
Current Conditions -  °F | °C
As of 3:20 AM on Sunday 23 Nov 2014 (Local Time) from EGPE Reporting Station
Clear Clear  
Wind Chill: 35°   Ceiling: Unl
Heat Index: 39°   Visibility: 6mi
Dew Point: 39°   Wind: 6mph
Humidity: 100%   Direction: 240°WSW
Pressure: 29.91"   Gusts: NA
Location:  56.82°N, 5.11°W
Report Text: EGPE 230320Z AUTO 24005KT 9999 NCD 04/04 Q1013
Loading
Personal Weather Stations






























Interactive Weather Map New forecast layout! Learn more

10-Day Weather Forecast

Advertisements
Track Severe Weather on mobile